Dorton Branch, Kentucky
Current Conditions -  °F | °C
As of 5:35 PM on Friday 19 Dec 2014 (Local Time) from K1A6 Reporting Station
Clear Clear  
Wind Chill: 40°   Ceiling: Unl
Heat Index: 40°   Visibility: 10mi
Dew Point: 27°   Wind: 3mph
Humidity: 60%   Direction: 10°N
Pressure: 30.2"   Gusts: NA
Location:  36.7417°N, 83.6911°W
Report Text: K1A6 192235Z AUTO 01003KT 10SM CLR 04/M03 A3020 RMK AO2 T00431028
Loading
Personal Weather Stations






























Interactive Weather Map New forecast layout! Learn more

10-Day Weather Forecast

Advertisements
Track Severe Weather on mobile